sensor_id;sensor_type;location;lat;lon;timestamp;pressure;altitude;pressure_sealevel;temperature;humidity
71573;BME280;59408;51.032;9.410;2023-01-30T00:00:35;99352.03;;;-3.00;100.00
71573;BME280;59408;51.032;9.410;2023-01-30T00:03:02;99347.28;;;-2.98;100.00
71573;BME280;59408;51.032;9.410;2023-01-30T00:05:30;99356.66;;;-2.95;100.00
71573;BME280;59408;51.032;9.410;2023-01-30T00:07:57;99354.81;;;-2.95;100.00
71573;BME280;59408;51.032;9.410;2023-01-30T00:10:24;99347.38;;;-2.93;100.00
71573;BME280;59408;51.032;9.410;2023-01-30T00:12:51;99320.97;;;-2.89;100.00
71573;BME280;59408;51.032;9.410;2023-01-30T00:15:18;99304.72;;;-2.88;100.00
71573;BME280;59408;51.032;9.410;2023-01-30T00:17:44;99306.59;;;-2.88;100.00
71573;BME280;59408;51.032;9.410;2023-01-30T00:20:11;99298.59;;;-2.88;100.00
71573;BME280;59408;51.032;9.410;2023-01-30T00:22:42;99270.59;;;-2.85;100.00
71573;BME280;59408;51.032;9.410;2023-01-30T00:25:25;99267.13;;;-2.86;100.00
71573;BME280;59408;51.032;9.410;2023-01-30T00:27:52;99258.56;;;-2.88;100.00
71573;BME280;59408;51.032;9.410;2023-01-30T00:30:18;99245.28;;;-2.83;100.00
71573;BME280;59408;51.032;9.410;2023-01-30T00:32:45;99239.44;;;-2.80;100.00
71573;BME280;59408;51.032;9.410;2023-01-30T00:35:12;99223.66;;;-2.81;100.00
71573;BME280;59408;51.032;9.410;2023-01-30T00:37:39;99244.22;;;-2.82;100.00
71573;BME280;59408;51.032;9.410;2023-01-30T00:40:09;99277.38;;;-2.78;100.00
71573;BME280;59408;51.032;9.410;2023-01-30T00:42:35;99274.72;;;-2.78;100.00
71573;BME280;59408;51.032;9.410;2023-01-30T00:45:02;99283.19;;;-2.81;100.00
71573;BME280;59408;51.032;9.410;2023-01-30T00:47:29;99255.69;;;-2.81;100.00
71573;BME280;59408;51.032;9.410;2023-01-30T00:49:56;99251.44;;;-2.82;100.00
71573;BME280;59408;51.032;9.410;2023-01-30T00:52:22;99232.75;;;-2.82;100.00
71573;BME280;59408;51.032;9.410;2023-01-30T00:54:49;99238.63;;;-2.80;100.00
71573;BME280;59408;51.032;9.410;2023-01-30T00:57:17;99221.66;;;-2.74;100.00
71573;BME280;59408;51.032;9.410;2023-01-30T00:59:43;99238.78;;;-2.70;100.00
71573;BME280;59408;51.032;9.410;2023-01-30T01:02:10;99234.00;;;-2.68;100.00
71573;BME280;59408;51.032;9.410;2023-01-30T01:04:37;99234.84;;;-2.63;100.00
71573;BME280;59408;51.032;9.410;2023-01-30T01:07:03;99243.44;;;-2.61;100.00
71573;BME280;59408;51.032;9.410;2023-01-30T01:09:30;99247.00;;;-2.55;100.00
71573;BME280;59408;51.032;9.410;2023-01-30T01:11:57;99237.91;;;-2.54;100.00
71573;BME280;59408;51.032;9.410;2023-01-30T01:14:25;99248.09;;;-2.51;100.00
71573;BME280;59408;51.032;9.410;2023-01-30T01:16:52;99247.03;;;-2.50;100.00
71573;BME280;59408;51.032;9.410;2023-01-30T01:19:18;99256.09;;;-2.51;100.00
71573;BME280;59408;51.032;9.410;2023-01-30T01:21:45;99258.84;;;-2.46;100.00
71573;BME280;59408;51.032;9.410;2023-01-30T01:24:13;99255.63;;;-2.48;100.00
71573;BME280;59408;51.032;9.410;2023-01-30T01:26:39;99259.09;;;-2.47;100.00
71573;BME280;59408;51.032;9.410;2023-01-30T01:29:08;99247.03;;;-2.50;100.00
71573;BME280;59408;51.032;9.410;2023-01-30T01:31:38;99214.50;;;-2.47;100.00
71573;BME280;59408;51.032;9.410;2023-01-30T01:34:04;99197.69;;;-2.47;100.00
71573;BME280;59408;51.032;9.410;2023-01-30T01:36:31;99200.09;;;-2.46;100.00
71573;BME280;59408;51.032;9.410;2023-01-30T01:39:17;99189.44;;;-2.46;100.00
71573;BME280;59408;51.032;9.410;2023-01-30T01:41:44;99177.13;;;-2.47;100.00
71573;BME280;59408;51.032;9.410;2023-01-30T01:44:12;99169.94;;;-2.46;100.00
71573;BME280;59408;51.032;9.410;2023-01-30T01:46:43;99168.31;;;-2.47;100.00
71573;BME280;59408;51.032;9.410;2023-01-30T01:49:14;99177.94;;;-2.46;100.00
71573;BME280;59408;51.032;9.410;2023-01-30T01:51:48;99181.13;;;-2.44;100.00
71573;BME280;59408;51.032;9.410;2023-01-30T01:54:19;99184.38;;;-2.42;100.00
71573;BME280;59408;51.032;9.410;2023-01-30T01:56:48;99192.47;;;-2.37;100.00
71573;BME280;59408;51.032;9.410;2023-01-30T01:59:19;99182.88;;;-2.33;100.00
71573;BME280;59408;51.032;9.410;2023-01-30T02:01:48;99181.00;;;-2.33;100.00
71573;BME280;59408;51.032;9.410;2023-01-30T02:04:16;99176.50;;;-2.27;100.00
71573;BME280;59408;51.032;9.410;2023-01-30T02:06:42;99174.41;;;-2.25;100.00
71573;BME280;59408;51.032;9.410;2023-01-30T02:09:09;99151.47;;;-2.21;100.00
71573;BME280;59408;51.032;9.410;2023-01-30T02:11:40;99138.16;;;-2.16;100.00
71573;BME280;59408;51.032;9.410;2023-01-30T02:14:09;99139.53;;;-2.14;100.00
71573;BME280;59408;51.032;9.410;2023-01-30T02:16:36;99137.97;;;-2.09;100.00
71573;BME280;59408;51.032;9.410;2023-01-30T02:19:11;99129.97;;;-2.09;100.00
71573;BME280;59408;51.032;9.410;2023-01-30T02:22:16;99137.19;;;-2.05;100.00
71573;BME280;59408;51.032;9.410;2023-01-30T02:25:10;99124.38;;;-2.03;100.00
71573;BME280;59408;51.032;9.410;2023-01-30T02:28:15;99123.84;;;-2.05;100.00
71573;BME280;59408;51.032;9.410;2023-01-30T02:33:51;99098.16;;;-2.06;100.00
71573;BME280;59408;51.032;9.410;2023-01-30T02:36:27;99100.03;;;-2.06;100.00
71573;BME280;59408;51.032;9.410;2023-01-30T02:39:03;99090.41;;;-2.07;100.00
71573;BME280;59408;51.032;9.410;2023-01-30T02:41:37;99084.81;;;-2.06;100.00
71573;BME280;59408;51.032;9.410;2023-01-30T02:44:14;99053.78;;;-2.07;100.00
71573;BME280;59408;51.032;9.410;2023-01-30T02:46:50;99071.19;;;-2.04;100.00
71573;BME280;59408;51.032;9.410;2023-01-30T02:49:22;99069.84;;;-2.07;100.00
71573;BME280;59408;51.032;9.410;2023-01-30T02:51:53;99055.16;;;-2.04;100.00
71573;BME280;59408;51.032;9.410;2023-01-30T02:54:21;99057.06;;;-2.00;100.00
71573;BME280;59408;51.032;9.410;2023-01-30T02:56:50;99052.56;;;-1.94;100.00
71573;BME280;59408;51.032;9.410;2023-01-30T02:59:21;99063.25;;;-1.94;100.00
71573;BME280;59408;51.032;9.410;2023-01-30T03:02:10;99049.38;;;-1.91;100.00
71573;BME280;59408;51.032;9.410;2023-01-30T03:05:07;99041.63;;;-1.93;100.00
71573;BME280;59408;51.032;9.410;2023-01-30T03:07:43;99038.41;;;-1.95;100.00
71573;BME280;59408;51.032;9.410;2023-01-30T03:10:17;99023.72;;;-1.92;100.00
71573;BME280;59408;51.032;9.410;2023-01-30T03:12:49;99011.69;;;-1.90;100.00
71573;BME280;59408;51.032;9.410;2023-01-30T03:15:24;98999.13;;;-1.89;100.00
71573;BME280;59408;51.032;9.410;2023-01-30T03:17:56;99014.09;;;-1.88;100.00
71573;BME280;59408;51.032;9.410;2023-01-30T03:20:23;99032.00;;;-1.89;100.00
71573;BME280;59408;51.032;9.410;2023-01-30T03:22:50;99019.44;;;-1.88;100.00
71573;BME280;59408;51.032;9.410;2023-01-30T03:25:19;99028.28;;;-1.88;100.00
71573;BME280;59408;51.032;9.410;2023-01-30T03:27:47;99001.00;;;-1.90;100.00
71573;BME280;59408;51.032;9.410;2023-01-30T03:30:16;99009.28;;;-1.91;100.00
71573;BME280;59408;51.032;9.410;2023-01-30T03:32:42;99002.88;;;-1.90;100.00
71573;BME280;59408;51.032;9.410;2023-01-30T03:35:11;98978.00;;;-1.91;100.00
71573;BME280;59408;51.032;9.410;2023-01-30T03:37:37;98996.75;;;-1.86;100.00
71573;BME280;59408;51.032;9.410;2023-01-30T03:40:05;98984.75;;;-1.83;100.00
71573;BME280;59408;51.032;9.410;2023-01-30T03:42:32;98977.28;;;-1.76;100.00
71573;BME280;59408;51.032;9.410;2023-01-30T03:44:58;98960.75;;;-1.73;100.00
71573;BME280;59408;51.032;9.410;2023-01-30T03:47:25;98945.53;;;-1.62;100.00
71573;BME280;59408;51.032;9.410;2023-01-30T03:49:51;98946.34;;;-1.62;100.00
71573;BME280;59408;51.032;9.410;2023-01-30T03:52:19;98940.72;;;-1.60;100.00
71573;BME280;59408;51.032;9.410;2023-01-30T03:54:46;98937.25;;;-1.61;100.00
71573;BME280;59408;51.032;9.410;2023-01-30T03:57:13;98935.66;;;-1.57;100.00
71573;BME280;59408;51.032;9.410;2023-01-30T03:59:39;98920.69;;;-1.53;100.00
71573;BME280;59408;51.032;9.410;2023-01-30T04:02:06;98937.28;;;-1.51;100.00
71573;BME280;59408;51.032;9.410;2023-01-30T04:04:33;98926.84;;;-1.52;100.00
71573;BME280;59408;51.032;9.410;2023-01-30T04:06:59;98930.31;;;-1.52;100.00
71573;BME280;59408;51.032;9.410;2023-01-30T04:09:27;98938.38;;;-1.47;100.00
71573;BME280;59408;51.032;9.410;2023-01-30T04:11:54;98948.53;;;-1.49;100.00
71573;BME280;59408;51.032;9.410;2023-01-30T04:14:20;98955.75;;;-1.44;100.00
71573;BME280;59408;51.032;9.410;2023-01-30T04:16:47;98977.19;;;-1.39;100.00
71573;BME280;59408;51.032;9.410;2023-01-30T04:19:14;98975.88;;;-1.36;100.00
71573;BME280;59408;51.032;9.410;2023-01-30T04:21:40;98952.56;;;-1.36;100.00
71573;BME280;59408;51.032;9.410;2023-01-30T04:24:07;98954.47;;;-1.36;100.00
71573;BME280;59408;51.032;9.410;2023-01-30T04:26:35;98944.84;;;-1.32;100.00
71573;BME280;59408;51.032;9.410;2023-01-30T04:29:02;98940.53;;;-1.33;100.00
71573;BME280;59408;51.032;9.410;2023-01-30T04:31:28;98970.81;;;-1.28;100.00
71573;BME280;59408;51.032;9.410;2023-01-30T04:33:55;98948.59;;;-1.28;100.00
71573;BME280;59408;51.032;9.410;2023-01-30T04:36:22;98924.78;;;-1.25;100.00
71573;BME280;59408;51.032;9.410;2023-01-30T04:38:48;98925.34;;;-1.28;100.00
71573;BME280;59408;51.032;9.410;2023-01-30T04:41:15;98915.44;;;-1.27;100.00
71573;BME280;59408;51.032;9.410;2023-01-30T04:43:43;98921.56;;;-1.27;100.00
71573;BME280;59408;51.032;9.410;2023-01-30T04:46:10;98903.13;;;-1.28;100.00
71573;BME280;59408;51.032;9.410;2023-01-30T04:48:36;98901.50;;;-1.29;100.00
71573;BME280;59408;51.032;9.410;2023-01-30T04:51:03;98894.56;;;-1.30;100.00
71573;BME280;59408;51.032;9.410;2023-01-30T04:53:30;98885.19;;;-1.28;100.00
71573;BME280;59408;51.032;9.410;2023-01-30T04:55:56;98884.66;;;-1.25;100.00
71573;BME280;59408;51.032;9.410;2023-01-30T04:58:23;98889.44;;;-1.27;100.00
71573;BME280;59408;51.032;9.410;2023-01-30T05:00:51;98878.75;;;-1.27;100.00
71573;BME280;59408;51.032;9.410;2023-01-30T05:03:18;98867.53;;;-1.29;100.00
71573;BME280;59408;51.032;9.410;2023-01-30T05:05:45;98865.94;;;-1.30;100.00
71573;BME280;59408;51.032;9.410;2023-01-30T05:08:12;98857.63;;;-1.23;100.00
71573;BME280;59408;51.032;9.410;2023-01-30T05:10:39;98859.53;;;-1.19;100.00
71573;BME280;59408;51.032;9.410;2023-01-30T05:13:06;98866.19;;;-1.16;100.00
71573;BME280;59408;51.032;9.410;2023-01-30T05:15:32;98868.59;;;-1.15;100.00
71573;BME280;59408;51.032;9.410;2023-01-30T05:18:00;98866.75;;;-1.14;100.00
71573;BME280;59408;51.032;9.410;2023-01-30T05:20:27;98868.63;;;-1.10;100.00
71573;BME280;59408;51.032;9.410;2023-01-30T05:22:54;98848.00;;;-1.04;100.00
71573;BME280;59408;51.032;9.410;2023-01-30T05:25:20;98853.66;;;-1.01;100.00
71573;BME280;59408;51.032;9.410;2023-01-30T05:27:47;98833.56;;;-0.93;100.00
71573;BME280;59408;51.032;9.410;2023-01-30T05:30:14;98836.75;;;-0.91;100.00
71573;BME280;59408;51.032;9.410;2023-01-30T05:32:40;98844.25;;;-0.88;100.00
71573;BME280;59408;51.032;9.410;2023-01-30T05:35:08;98833.81;;;-0.84;100.00
71573;BME280;59408;51.032;9.410;2023-01-30T05:37:35;98826.59;;;-0.84;100.00
71573;BME280;59408;51.032;9.410;2023-01-30T05:40:02;98828.72;;;-0.81;100.00
71573;BME280;59408;51.032;9.410;2023-01-30T05:42:29;98825.50;;;-0.78;100.00
71573;BME280;59408;51.032;9.410;2023-01-30T05:44:55;98830.59;;;-0.76;100.00
71573;BME280;59408;51.032;9.410;2023-01-30T05:47:22;98821.75;;;-0.72;100.00
71573;BME280;59408;51.032;9.410;2023-01-30T05:49:49;98815.31;;;-0.71;100.00
71573;BME280;59408;51.032;9.410;2023-01-30T05:52:17;98808.34;;;-0.72;100.00
71573;BME280;59408;51.032;9.410;2023-01-30T05:54:43;98826.56;;;-0.69;100.00
71573;BME280;59408;51.032;9.410;2023-01-30T05:57:10;98812.63;;;-0.66;100.00
71573;BME280;59408;51.032;9.410;2023-01-30T05:59:38;98809.97;;;-0.66;100.00
71573;BME280;59408;51.032;9.410;2023-01-30T06:02:04;98823.63;;;-0.67;100.00
71573;BME280;59408;51.032;9.410;2023-01-30T06:04:31;98836.75;;;-0.66;100.00
71573;BME280;59408;51.032;9.410;2023-01-30T06:06:57;98815.31;;;-0.66;100.00
71573;BME280;59408;51.032;9.410;2023-01-30T06:09:25;98812.63;;;-0.60;100.00
71573;BME280;59408;51.032;9.410;2023-01-30T06:11:52;98819.84;;;-0.61;100.00
71573;BME280;59408;51.032;9.410;2023-01-30T06:14:19;98808.34;;;-0.56;100.00
71573;BME280;59408;51.032;9.410;2023-01-30T06:16:45;98815.56;;;-0.62;100.00
71573;BME280;59408;51.032;9.410;2023-01-30T06:19:12;98821.19;;;-0.64;100.00
71573;BME280;59408;51.032;9.410;2023-01-30T06:21:38;98808.91;;;-0.65;100.00
71573;BME280;59408;51.032;9.410;2023-01-30T06:24:05;98836.47;;;-0.64;100.00
71573;BME280;59408;51.032;9.410;2023-01-30T06:26:33;98836.22;;;-0.68;100.00
71573;BME280;59408;51.032;9.410;2023-01-30T06:29:00;98834.34;;;-0.67;100.00
71573;BME280;59408;51.032;9.410;2023-01-30T06:31:27;98837.81;;;-0.67;100.00
71573;BME280;59408;51.032;9.410;2023-01-30T06:33:53;98828.44;;;-0.69;100.00
71573;BME280;59408;51.032;9.410;2023-01-30T06:36:20;98823.88;;;-0.69;100.00
71573;BME280;59408;51.032;9.410;2023-01-30T06:38:47;98823.09;;;-0.69;100.00
71573;BME280;59408;51.032;9.410;2023-01-30T06:41:13;98823.34;;;-0.71;100.00
71573;BME280;59408;51.032;9.410;2023-01-30T06:43:41;98820.41;;;-0.64;100.00
71573;BME280;59408;51.032;9.410;2023-01-30T06:46:08;98822.25;;;-0.59;100.00
71573;BME280;59408;51.032;9.410;2023-01-30T06:48:35;98823.59;;;-0.62;100.00
71573;BME280;59408;51.032;9.410;2023-01-30T06:51:01;98830.28;;;-0.59;100.00
71573;BME280;59408;51.032;9.410;2023-01-30T06:53:28;98833.78;;;-0.59;100.00
71573;BME280;59408;51.032;9.410;2023-01-30T06:55:55;98829.22;;;-0.58;100.00
71573;BME280;59408;51.032;9.410;2023-01-30T06:58:21;98814.22;;;-0.59;100.00
71573;BME280;59408;51.032;9.410;2023-01-30T07:00:50;98811.53;;;-0.54;100.00
71573;BME280;59408;51.032;9.410;2023-01-30T07:03:17;98830.00;;;-0.53;100.00
71573;BME280;59408;51.032;9.410;2023-01-30T07:05:45;98821.16;;;-0.48;100.00
71573;BME280;59408;51.032;9.410;2023-01-30T07:08:13;98824.38;;;-0.46;100.00
71573;BME280;59408;51.032;9.410;2023-01-30T07:10:41;98834.00;;;-0.45;100.00
71573;BME280;59408;51.032;9.410;2023-01-30T07:13:08;98848.22;;;-0.50;100.00
71573;BME280;59408;51.032;9.410;2023-01-30T07:15:35;98828.41;;;-0.49;100.00
71573;BME280;59408;51.032;9.410;2023-01-30T07:18:03;98832.69;;;-0.48;100.00
71573;BME280;59408;51.032;9.410;2023-01-30T07:20:30;98849.56;;;-0.47;100.00
71573;BME280;59408;51.032;9.410;2023-01-30T07:22:57;98843.94;;;-0.46;100.00
71573;BME280;59408;51.032;9.410;2023-01-30T07:25:25;98852.25;;;-0.47;100.00
71573;BME280;59408;51.032;9.410;2023-01-30T07:27:53;98822.50;;;-0.46;100.00
71573;BME280;59408;51.032;9.410;2023-01-30T07:30:20;98821.94;;;-0.43;100.00
71573;BME280;59408;51.032;9.410;2023-01-30T07:32:50;98835.88;;;-0.41;100.00
71573;BME280;59408;51.032;9.410;2023-01-30T07:35:18;98841.50;;;-0.37;100.00
71573;BME280;59408;51.032;9.410;2023-01-30T07:37:46;98821.16;;;-0.38;100.00
71573;BME280;59408;51.032;9.410;2023-01-30T07:40:13;98824.88;;;-0.34;100.00
71573;BME280;59408;51.032;9.410;2023-01-30T07:42:40;98820.31;;;-0.34;100.00
71573;BME280;59408;51.032;9.410;2023-01-30T07:45:07;98808.25;;;-0.31;100.00
71573;BME280;59408;51.032;9.410;2023-01-30T07:47:34;98815.50;;;-0.32;100.00
71573;BME280;59408;51.032;9.410;2023-01-30T07:50:01;98800.22;;;-0.31;100.00
71573;BME280;59408;51.032;9.410;2023-01-30T07:52:29;98797.81;;;-0.33;100.00
71573;BME280;59408;51.032;9.410;2023-01-30T07:54:56;98811.47;;;-0.34;100.00
71573;BME280;59408;51.032;9.410;2023-01-30T07:57:24;98802.91;;;-0.31;100.00
71573;BME280;59408;51.032;9.410;2023-01-30T07:59:51;98799.94;;;-0.30;100.00
71573;BME280;59408;51.032;9.410;2023-01-30T08:02:18;98806.88;;;-0.23;100.00
71573;BME280;59408;51.032;9.410;2023-01-30T08:04:44;98810.63;;;-0.19;100.00
71573;BME280;59408;51.032;9.410;2023-01-30T08:07:11;98837.13;;;-0.18;100.00
71573;BME280;59408;51.032;9.410;2023-01-30T08:09:39;98808.19;;;-0.16;100.00
71573;BME280;59408;51.032;9.410;2023-01-30T08:12:06;98821.59;;;-0.16;100.00
71573;BME280;59408;51.032;9.410;2023-01-30T08:14:32;98834.72;;;-0.14;100.00
71573;BME280;59408;51.032;9.410;2023-01-30T08:16:59;98831.78;;;-0.13;100.00
71573;BME280;59408;51.032;9.410;2023-01-30T08:19:25;98820.78;;;-0.16;100.00
71573;BME280;59408;51.032;9.410;2023-01-30T08:21:52;98816.50;;;-0.17;100.00
71573;BME280;59408;51.032;9.410;2023-01-30T08:24:19;98794.25;;;-0.18;100.00
71573;BME280;59408;51.032;9.410;2023-01-30T08:26:48;98811.72;;;-0.20;100.00
71573;BME280;59408;51.032;9.410;2023-01-30T08:29:14;98826.97;;;-0.21;100.00
71573;BME280;59408;51.032;9.410;2023-01-30T08:31:42;98816.00;;;-0.19;100.00
71573;BME280;59408;51.032;9.410;2023-01-30T08:34:08;98819.19;;;-0.17;100.00
71573;BME280;59408;51.032;9.410;2023-01-30T08:36:35;98807.38;;;-0.16;100.00
71573;BME280;59408;51.032;9.410;2023-01-30T08:39:01;98818.94;;;-0.21;100.00
71573;BME280;59408;51.032;9.410;2023-01-30T08:41:28;98820.00;;;-0.27;100.00
71573;BME280;59408;51.032;9.410;2023-01-30T08:43:56;98819.25;;;-0.28;100.00
71573;BME280;59408;51.032;9.410;2023-01-30T08:46:23;98818.16;;;-0.32;100.00
71573;BME280;59408;51.032;9.410;2023-01-30T08:48:50;98818.44;;;-0.28;100.00
71573;BME280;59408;51.032;9.410;2023-01-30T08:51:16;98791.56;;;-0.18;100.00
71573;BME280;59408;51.032;9.410;2023-01-30T08:53:43;98786.22;;;-0.13;100.00
71573;BME280;59408;51.032;9.410;2023-01-30T08:56:09;98783.25;;;-0.11;100.00
71573;BME280;59408;51.032;9.410;2023-01-30T08:58:36;98789.13;;;-0.04;100.00
71573;BME280;59408;51.032;9.410;2023-01-30T09:01:07;98798.19;;;0.05;100.00
71573;BME280;59408;51.032;9.410;2023-01-30T09:03:34;98783.72;;;0.06;100.00
71573;BME280;59408;51.032;9.410;2023-01-30T09:06:01;98787.19;;;0.06;100.00
71573;BME280;59408;51.032;9.410;2023-01-30T09:08:27;98783.44;;;0.07;100.00
71573;BME280;59408;51.032;9.410;2023-01-30T09:10:56;98797.66;;;0.08;100.00
71573;BME280;59408;51.032;9.410;2023-01-30T09:13:23;98786.88;;;0.13;100.00
71573;BME280;59408;51.032;9.410;2023-01-30T09:15:50;98788.69;;;0.23;100.00
71573;BME280;59408;51.032;9.410;2023-01-30T09:18:18;98783.28;;;0.28;100.00
71573;BME280;59408;51.032;9.410;2023-01-30T09:20:45;98791.84;;;0.35;100.00
71573;BME280;59408;51.032;9.410;2023-01-30T09:23:12;98807.16;;;0.34;100.00
71573;BME280;59408;51.032;9.410;2023-01-30T09:25:38;98805.78;;;0.37;100.00
71573;BME280;59408;51.032;9.410;2023-01-30T09:28:05;98820.84;;;0.33;100.00
71573;BME280;59408;51.032;9.410;2023-01-30T09:30:32;98800.66;;;0.40;100.00
71573;BME280;59408;51.032;9.410;2023-01-30T09:32:58;98794.22;;;0.41;100.00
71573;BME280;59408;51.032;9.410;2023-01-30T09:35:26;98800.13;;;0.43;100.00
71573;BME280;59408;51.032;9.410;2023-01-30T09:37:53;98787.47;;;0.49;100.00
71573;BME280;59408;51.032;9.410;2023-01-30T09:40:22;98783.97;;;0.54;100.00
71573;BME280;59408;51.032;9.410;2023-01-30T09:43:19;98788.16;;;0.65;100.00
71573;BME280;59408;51.032;9.410;2023-01-30T09:46:05;98794.81;;;0.72;100.00
71573;BME280;59408;51.032;9.410;2023-01-30T09:48:43;98792.94;;;0.73;100.00
71573;BME280;59408;51.032;9.410;2023-01-30T09:51:24;98817.88;;;0.73;100.00
71573;BME280;59408;51.032;9.410;2023-01-30T09:54:01;98807.44;;;0.72;100.00
71573;BME280;59408;51.032;9.410;2023-01-30T09:56:30;98807.19;;;0.68;100.00
71573;BME280;59408;51.032;9.410;2023-01-30T09:58:58;98820.84;;;0.72;100.00
71573;BME280;59408;51.032;9.410;2023-01-30T10:01:33;98812.81;;;0.72;100.00
71573;BME280;59408;51.032;9.410;2023-01-30T10:04:11;98800.69;;;0.74;100.00
71573;BME280;59408;51.032;9.410;2023-01-30T10:06:44;98812.47;;;0.78;100.00
71573;BME280;59408;51.032;9.410;2023-01-30T10:09:17;98816.19;;;0.82;100.00
71573;BME280;59408;51.032;9.410;2023-01-30T10:11:58;98812.16;;;0.85;100.00
71573;BME280;59408;51.032;9.410;2023-01-30T10:17:38;98830.34;;;0.93;100.00
71573;BME280;59408;51.032;9.410;2023-01-30T10:20:33;98840.00;;;0.94;100.00
71573;BME280;59408;51.032;9.410;2023-01-30T10:23:16;98861.81;;;0.87;100.00
71573;BME280;59408;51.032;9.410;2023-01-30T10:25:50;98861.34;;;0.80;100.00
71573;BME280;59408;51.032;9.410;2023-01-30T10:28:21;98847.44;;;0.68;100.00
71573;BME280;59408;51.032;9.410;2023-01-30T10:30:53;98830.31;;;0.59;100.00
71573;BME280;59408;51.032;9.410;2023-01-30T10:33:24;98826.28;;;0.62;100.00
71573;BME280;59408;51.032;9.410;2023-01-30T10:35:58;98819.53;;;0.69;100.00
71573;BME280;59408;51.032;9.410;2023-01-30T10:38:34;98822.09;;;0.84;100.00
71573;BME280;59408;51.032;9.410;2023-01-30T10:41:12;98837.16;;;1.14;100.00
71573;BME280;59408;51.032;9.410;2023-01-30T10:43:43;98835.00;;;1.45;100.00
71573;BME280;59408;51.032;9.410;2023-01-30T10:46:21;98835.84;;;1.64;100.00
71573;BME280;59408;51.032;9.410;2023-01-30T10:48:55;98825.22;;;1.78;100.00
71573;BME280;59408;51.032;9.410;2023-01-30T10:51:36;98827.00;;;1.88;100.00
71573;BME280;59408;51.032;9.410;2023-01-30T10:54:13;98830.88;;;2.00;100.00
71573;BME280;59408;51.032;9.410;2023-01-30T10:56:49;98835.03;;;2.12;100.00
71573;BME280;59408;51.032;9.410;2023-01-30T10:59:23;98821.06;;;2.10;100.00
71573;BME280;59408;51.032;9.410;2023-01-30T11:01:58;98826.00;;;2.26;100.00
71573;BME280;59408;51.032;9.410;2023-01-30T11:04:30;98810.84;;;2.49;100.00
71573;BME280;59408;51.032;9.410;2023-01-30T11:07:02;98807.94;;;2.64;100.00
71573;BME280;59408;51.032;9.410;2023-01-30T11:09:42;98806.50;;;3.04;100.00
71573;BME280;59408;51.032;9.410;2023-01-30T11:12:09;98811.97;;;3.32;98.73
71573;BME280;59408;51.032;9.410;2023-01-30T11:14:49;98805.19;;;3.48;98.90
71573;BME280;59408;51.032;9.410;2023-01-30T11:17:17;98811.44;;;3.30;98.00
71573;BME280;59408;51.032;9.410;2023-01-30T11:19:44;98812.94;;;3.22;98.99
71573;BME280;59408;51.032;9.410;2023-01-30T11:22:19;98806.28;;;3.01;98.58
71573;BME280;59408;51.032;9.410;2023-01-30T11:24:48;98797.09;;;3.02;99.73
71573;BME280;59408;51.032;9.410;2023-01-30T11:27:18;98807.31;;;3.05;98.67
71573;BME280;59408;51.032;9.410;2023-01-30T11:29:47;98800.44;;;3.12;94.82
71573;BME280;59408;51.032;9.410;2023-01-30T11:32:20;98800.38;;;3.31;92.62
71573;BME280;59408;51.032;9.410;2023-01-30T11:35:02;98799.09;;;3.56;88.50
71573;BME280;59408;51.032;9.410;2023-01-30T11:37:31;98792.81;;;3.74;87.06
71573;BME280;59408;51.032;9.410;2023-01-30T11:40:06;98802.44;;;3.80;87.51
71573;BME280;59408;51.032;9.410;2023-01-30T11:42:33;98789.84;;;3.89;86.27
71573;BME280;59408;51.032;9.410;2023-01-30T11:45:00;98798.00;;;4.12;85.71
71573;BME280;59408;51.032;9.410;2023-01-30T11:47:49;98790.88;;;4.30;84.97
71573;BME280;59408;51.032;9.410;2023-01-30T11:50:28;98807.28;;;4.33;84.08
71573;BME280;59408;51.032;9.410;2023-01-30T11:53:04;98803.56;;;4.29;83.76
71573;BME280;59408;51.032;9.410;2023-01-30T11:55:38;98802.69;;;4.20;84.01
71573;BME280;59408;51.032;9.410;2023-01-30T11:58:07;98806.81;;;4.17;83.69
71573;BME280;59408;51.032;9.410;2023-01-30T12:00:38;98806.09;;;4.12;84.98
71573;BME280;59408;51.032;9.410;2023-01-30T12:03:10;98796.31;;;4.02;84.79
71573;BME280;59408;51.032;9.410;2023-01-30T12:05:38;98786.72;;;3.96;85.06
71573;BME280;59408;51.032;9.410;2023-01-30T12:08:23;98784.63;;;3.93;84.96
71573;BME280;59408;51.032;9.410;2023-01-30T12:11:24;98778.34;;;3.84;84.88
71573;BME280;59408;51.032;9.410;2023-01-30T12:13:52;98783.84;;;3.79;84.66
71573;BME280;59408;51.032;9.410;2023-01-30T12:16:22;98781.66;;;3.81;84.83
71573;BME280;59408;51.032;9.410;2023-01-30T12:18:55;98795.94;;;3.81;84.10
71573;BME280;59408;51.032;9.410;2023-01-30T12:21:35;98771.84;;;3.85;83.30
71573;BME280;59408;51.032;9.410;2023-01-30T12:24:14;98765.84;;;3.88;83.12
71573;BME280;59408;51.032;9.410;2023-01-30T12:26:58;98757.84;;;3.97;82.20
71573;BME280;59408;51.032;9.410;2023-01-30T12:29:29;98765.91;;;4.10;82.37
71573;BME280;59408;51.032;9.410;2023-01-30T12:32:05;98785.28;;;4.26;80.89
71573;BME280;59408;51.032;9.410;2023-01-30T12:34:32;98769.97;;;4.35;81.48
71573;BME280;59408;51.032;9.410;2023-01-30T12:37:07;98790.88;;;4.30;78.46
71573;BME280;59408;51.032;9.410;2023-01-30T12:39:51;98784.00;;;4.23;79.92
71573;BME280;59408;51.032;9.410;2023-01-30T12:42:39;98776.59;;;4.15;79.75
71573;BME280;59408;51.032;9.410;2023-01-30T12:45:19;98773.50;;;4.22;78.95
71573;BME280;59408;51.032;9.410;2023-01-30T12:48:13;98778.38;;;4.56;78.12
71573;BME280;59408;51.032;9.410;2023-01-30T12:50:58;98792.81;;;4.74;79.77
71573;BME280;59408;51.032;9.410;2023-01-30T12:53:35;98786.66;;;4.73;77.53
71573;BME280;59408;51.032;9.410;2023-01-30T12:56:20;98790.13;;;4.74;77.43
71573;BME280;59408;51.032;9.410;2023-01-30T12:58:55;98792.59;;;4.61;77.62
71573;BME280;59408;51.032;9.410;2023-01-30T13:01:27;98789.38;;;4.59;77.80
71573;BME280;59408;51.032;9.410;2023-01-30T13:04:05;98800.47;;;4.72;76.04
71573;BME280;59408;51.032;9.410;2023-01-30T13:06:46;98801.31;;;4.81;77.11
71573;BME280;59408;51.032;9.410;2023-01-30T13:09:36;98792.66;;;4.70;76.87
71573;BME280;59408;51.032;9.410;2023-01-30T13:12:10;98802.44;;;4.80;77.17
71573;BME280;59408;51.032;9.410;2023-01-30T13:14:45;98818.56;;;4.71;76.73
71573;BME280;59408;51.032;9.410;2023-01-30T13:17:23;98816.47;;;4.68;77.18